Time;durP1;ratioP1;P1;durP2;ratioP2;P2;SDS_P1;SDS_P2;PMS_P1;PMS_P2;Temp;Humidity;BMP_temperature;BMP_pressure;BME280_temperature;BME280_humidity;BME280_pressure;Samples;Min_cycle;Max_cycle;Signal;HPM_P1;HPM_P2
2022/03/12 00:01:33;;;;;;;17.48;7.95;;;0.90;92.50;;;-0.86;51.70;102583.00;4978160;28;20043;-74
2022/03/12 00:04:00;;;;;;;24.52;8.85;;;0.90;92.60;;;-0.89;52.03;102590.63;4951483;28;20039;-74
2022/03/12 00:06:26;;;;;;;24.98;8.60;;;0.90;92.60;;;-0.90;51.96;102587.19;4952827;28;20058;-74
2022/03/12 00:08:53;;;;;;;26.80;8.15;;;0.90;92.70;;;-0.96;52.18;102592.16;4936047;28;20039;-75
2022/03/12 00:11:26;;;;;;;16.45;5.85;;;0.80;92.70;;;-0.97;52.30;102590.41;4951511;28;20033;-74
2022/03/12 00:13:57;;;;;;;29.85;8.98;;;0.90;92.70;;;-0.95;52.07;102588.75;4942060;28;20049;-74
2022/03/12 00:16:25;;;;;;;27.77;9.13;;;0.80;92.70;;;-0.99;52.03;102586.91;4967417;28;20041;-74
2022/03/12 00:19:01;;;;;;;21.65;9.13;;;0.80;92.80;;;-0.95;51.82;102582.69;4945916;28;20038;-75
2022/03/12 00:21:33;;;;;;;24.05;9.00;;;0.70;92.70;;;-0.98;52.06;102587.78;4951815;28;20031;-74
2022/03/12 00:23:59;;;;;;;18.98;6.18;;;0.80;92.70;;;-1.03;51.80;102595.41;4935284;28;20054;-74
2022/03/12 00:26:27;;;;;;;26.90;8.80;;;0.80;92.70;;;-1.01;52.05;102592.88;4943445;28;20177;-74
2022/03/12 00:28:56;;;;;;;25.85;9.75;;;0.80;92.80;;;-1.02;52.07;102591.97;4951781;28;20179;-74
2022/03/12 00:31:23;;;;;;;23.20;9.32;;;0.80;92.80;;;-1.01;52.13;102582.53;4954549;28;20035;-74
2022/03/12 00:33:49;;;;;;;18.80;7.28;;;0.70;92.80;;;-1.10;52.23;102586.56;4951025;28;20062;-74
2022/03/12 00:36:17;;;;;;;29.15;8.73;;;0.70;92.80;;;-1.10;51.98;102590.84;4929567;28;20030;-74
2022/03/12 00:38:45;;;;;;;26.13;9.95;;;0.60;92.90;;;-1.11;52.14;102576.19;4933737;28;20034;-74
2022/03/12 00:41:13;;;;;;;17.80;6.43;;;0.70;92.70;;;-1.13;51.98;102577.84;4952580;28;20023;-74
2022/03/12 00:43:39;;;;;;;30.63;9.05;;;0.70;92.90;;;-1.12;52.60;102583.06;4934415;28;20444;-74
2022/03/12 00:46:06;;;;;;;24.30;8.35;;;0.60;93.00;;;-1.17;52.47;102579.44;4935867;28;20099;-74
2022/03/12 00:48:34;;;;;;;19.95;8.90;;;0.60;93.10;;;-1.16;52.58;102585.50;4951422;28;20055;-74
2022/03/12 00:51:00;;;;;;;26.23;8.88;;;0.60;93.00;;;-1.21;52.15;102575.00;4952755;28;20023;-75
2022/03/12 00:53:26;;;;;;;26.48;9.70;;;0.60;93.10;;;-1.18;52.57;102575.09;4943353;28;20034;-75
2022/03/12 00:55:52;;;;;;;22.30;8.88;;;0.60;93.20;;;-1.22;52.40;102577.56;4956046;28;20097;-75
2022/03/12 00:58:18;;;;;;;25.52;9.00;;;0.60;93.20;;;-1.25;52.80;102578.34;4967499;28;20043;-74
2022/03/12 01:00:44;;;;;;;31.25;9.85;;;0.60;93.40;;;-1.25;52.95;102583.50;4952937;28;20514;-74
2022/03/12 01:03:11;;;;;;;28.88;10.48;;;0.50;93.40;;;-1.33;53.33;102574.63;4948991;28;20039;-74
2022/03/12 01:06:02;;;;;;;23.20;9.73;;;0.50;93.50;;;-1.32;53.08;102571.19;4951761;28;20485;-74
2022/03/12 01:08:31;;;;;;;12.00;5.30;;;0.50;93.50;;;-1.43;53.12;102572.56;4950718;28;20031;-74
2022/03/12 01:11:04;;;;;;;24.95;9.20;;;0.40;93.50;;;-1.42;53.05;102569.16;4954048;28;20035;-74
2022/03/12 01:13:31;;;;;;;31.95;9.85;;;0.40;93.70;;;-1.40;53.25;102562.31;4942400;28;20147;-74
2022/03/12 01:15:57;;;;;;;24.77;9.52;;;0.40;93.70;;;-1.44;53.20;102551.03;4941037;28;20035;-74
2022/03/12 01:18:24;;;;;;;28.33;9.88;;;0.40;93.70;;;-1.45;53.46;102555.31;4924406;28;20032;-74
2022/03/12 01:20:52;;;;;;;23.58;8.18;;;0.40;93.70;;;-1.50;53.10;102556.84;4943232;28;20041;-74
2022/03/12 01:23:23;;;;;;;26.45;9.80;;;0.40;93.70;;;-1.44;53.11;102553.63;4950719;28;20042;-74
2022/03/12 01:25:51;;;;;;;20.83;8.73;;;0.30;93.80;;;-1.55;53.68;102555.84;4941639;28;20043;-74
2022/03/12 01:28:18;;;;;;;32.67;10.05;;;0.30;93.90;;;-1.55;54.06;102548.09;4942751;28;20433;-74
2022/03/12 01:30:45;;;;;;;24.23;9.00;;;0.30;94.00;;;-1.57;54.00;102547.16;4951370;28;20015;-75
2022/03/12 01:33:11;;;;;;;30.25;11.23;;;0.20;94.00;;;-1.61;53.65;102540.16;4949301;28;20086;-75
2022/03/12 01:35:39;;;;;;;30.00;10.13;;;0.20;94.10;;;-1.60;53.67;102538.44;4957142;28;20561;-74
2022/03/12 01:38:06;;;;;;;30.25;10.20;;;0.20;94.00;;;-1.60;53.81;102539.31;4952881;28;20039;-74
2022/03/12 01:40:33;;;;;;;27.80;10.38;;;0.20;94.10;;;-1.59;53.78;102532.44;4953346;28;21079;-75
2022/03/12 01:43:04;;;;;;;29.40;10.85;;;0.20;94.00;;;-1.62;53.83;102530.66;4948841;28;20038;-75
2022/03/12 01:45:31;;;;;;;32.50;11.75;;;0.20;93.80;;;-1.62;53.69;102535.81;4950441;28;20031;-75
2022/03/12 01:48:02;;;;;;;29.17;10.73;;;0.20;93.80;;;-1.60;53.62;102534.13;4950838;28;20030;-75
2022/03/12 01:50:37;;;;;;;29.45;10.98;;;0.20;93.80;;;-1.60;53.58;102528.97;4949627;28;20023;-75
2022/03/12 01:53:10;;;;;;;36.15;11.23;;;0.20;93.60;;;-1.60;53.29;102528.09;4934006;28;20086;-76
2022/03/12 01:55:39;;;;;;;21.85;8.80;;;0.70;93.70;;;-1.58;53.41;102529.91;4926433;28;20133;-75
2022/03/12 01:58:07;;;;;;;26.63;9.50;;;0.20;93.40;;;-1.60;52.88;102526.38;4935091;28;20019;-75
2022/03/12 02:00:49;;;;;;;26.90;10.02;;;0.20;93.40;;;-1.58;53.05;102516.09;4943955;28;20038;-75
2022/03/12 02:03:28;;;;;;;26.83;9.95;;;0.20;93.30;;;-1.60;52.63;102518.63;4954210;28;20027;-75
2022/03/12 02:05:56;;;;;;;26.70;8.60;;;0.20;93.40;;;-1.62;52.88;102512.56;4946665;28;20101;-75
2022/03/12 02:08:22;;;;;;;30.33;9.63;;;0.20;93.50;;;-1.61;52.95;102524.63;4934976;28;20516;-75
2022/03/12 02:10:51;;;;;;;33.05;10.07;;;0.20;93.60;;;-1.62;53.08;102520.31;4933135;28;20034;-75
2022/03/12 02:13:20;;;;;;;32.90;10.30;;;0.20;94.00;;;-1.68;53.28;102522.69;4949481;28;20549;-75
2022/03/12 02:15:46;;;;;;;24.48;9.73;;;0.10;94.00;;;-1.70;53.76;102511.44;4952246;28;20051;-75
2022/03/12 02:18:14;;;;;;;26.70;10.10;;;0.10;94.10;;;-1.77;54.11;102514.63;4932873;28;20049;-75
2022/03/12 02:20:41;;;;;;;28.38;10.25;;;0.10;94.10;;;-1.79;54.30;102514.59;4911882;28;20035;-75
2022/03/12 02:23:09;;;;;;;27.58;9.90;;;0.00;94.20;;;-1.86;54.41;102505.78;4933814;28;20030;-75
2022/03/12 02:25:35;;;;;;;27.80;9.70;;;-0.10;94.20;;;-1.93;53.99;102505.50;4940722;28;20030;-75
2022/03/12 02:28:12;;;;;;;31.00;10.60;;;-0.10;94.30;;;-1.90;54.57;102500.44;4944031;28;20050;-75
2022/03/12 02:30:47;;;;;;;25.75;9.23;;;-0.10;94.30;;;-1.92;54.38;102491.78;4961838;28;20077;-75
2022/03/12 02:33:16;;;;;;;26.27;8.03;;;-0.10;94.30;;;-1.98;54.26;102489.88;4972614;28;20022;-75
2022/03/12 02:35:44;;;;;;;22.75;7.70;;;-0.10;94.30;;;-1.97;54.20;102486.44;4947961;28;20027;-75
2022/03/12 02:38:10;;;;;;;32.38;10.05;;;-0.10;94.30;;;-1.96;54.05;102489.94;4956714;28;20088;-75
2022/03/12 02:40:40;;;;;;;27.73;8.00;;;-0.10;94.40;;;-2.01;54.04;102488.88;4936687;28;20030;-75
2022/03/12 02:43:09;;;;;;;26.23;9.88;;;-0.20;94.50;;;-2.02;54.77;102492.31;4941351;28;20480;-75
2022/03/12 02:45:35;;;;;;;22.20;8.10;;;-0.20;94.40;;;-2.10;54.46;102487.75;4948942;28;21190;-75
2022/03/12 02:48:02;;;;;;;35.45;10.13;;;-0.20;94.70;;;-2.08;54.65;102482.63;4949268;28;20041;-75
2022/03/12 02:50:28;;;;;;;32.70;10.82;;;-0.20;94.80;;;-2.07;54.75;102485.28;4939714;28;21064;-74
2022/03/12 02:52:54;;;;;;;30.92;6.28;;;-0.30;94.60;;;-2.16;54.95;102484.97;4949808;28;20040;-75
2022/03/12 02:55:24;;;;;;;33.80;10.30;;;-0.30;94.80;;;-2.17;55.17;102487.50;4932564;28;20109;-74
2022/03/12 02:57:52;;;;;;;34.65;10.85;;;-0.40;94.70;;;-2.20;54.82;102482.22;4949363;28;20038;-74
2022/03/12 03:00:20;;;;;;;22.50;7.90;;;-0.40;94.80;;;-2.25;54.94;102468.28;4953372;28;20516;-74
2022/03/12 03:02:53;;;;;;;27.17;10.75;;;-0.40;94.80;;;-2.23;55.27;102474.38;4949875;28;20031;-74
2022/03/12 03:05:31;;;;;;;27.30;10.35;;;-0.40;95.10;;;-2.29;55.09;102473.34;4938928;28;20039;-74
2022/03/12 03:08:04;;;;;;;21.30;6.43;;;-0.40;95.10;;;-2.35;55.55;102474.84;4946931;28;20049;-74
2022/03/12 03:10:42;;;;;;;18.85;6.93;;;-0.40;95.30;;;-2.40;55.72;102469.50;4950261;28;20051;-74
2022/03/12 03:13:21;;;;;;;32.10;10.43;;;-0.50;95.40;;;-2.40;56.23;102474.66;4948458;28;20062;-74
2022/03/12 03:16:22;;;;;;;25.30;10.05;;;-0.50;95.40;;;-2.38;55.50;102467.00;4950514;28;20035;-74
2022/03/12 03:18:54;;;;;;;27.10;10.05;;;-0.50;95.40;;;-2.39;55.69;102466.13;4947980;28;20030;-74
2022/03/12 03:21:26;;;;;;;19.02;6.63;;;-0.60;95.30;;;-2.44;55.81;102467.66;4949657;28;20078;-75
2022/03/12 03:23:53;;;;;;;34.95;10.73;;;-0.60;95.20;;;-2.42;55.48;102460.84;4949388;28;20066;-75
2022/03/12 03:26:33;;;;;;;33.90;10.23;;;-0.50;95.30;;;-2.38;55.35;102462.69;4934515;28;20030;-75
2022/03/12 03:28:59;;;;;;;34.08;10.65;;;-0.60;95.20;;;-2.38;55.77;102470.44;4947950;28;20038;-75
2022/03/12 03:31:25;;;;;;;28.73;10.68;;;-0.50;95.20;;;-2.38;55.66;102462.69;4930280;28;20490;-74
2022/03/12 03:33:51;;;;;;;26.52;9.40;;;-0.50;94.90;;;-2.37;55.12;102461.88;4943961;28;20027;-74
2022/03/12 03:36:18;;;;;;;19.60;6.57;;;-0.50;95.00;;;-2.38;55.33;102456.66;4946396;28;20039;-75
2022/03/12 03:38:45;;;;;;;25.33;8.60;;;-0.50;94.90;;;-2.35;54.99;102464.53;4954525;28;20527;-74
2022/03/12 03:41:11;;;;;;;32.83;11.18;;;-0.60;94.90;;;-2.34;54.90;102464.56;4944473;28;20030;-74
2022/03/12 03:43:37;;;;;;;31.35;9.65;;;-0.50;94.90;;;-2.32;54.94;102452.59;4951360;28;20035;-74
2022/03/12 03:46:03;;;;;;;28.20;10.07;;;-0.50;94.80;;;-2.33;54.73;102450.84;4955731;28;20019;-74
2022/03/12 03:48:31;;;;;;;26.60;10.07;;;-0.50;94.70;;;-2.33;54.85;102448.28;4951929;28;20030;-74
2022/03/12 03:50:57;;;;;;;30.55;10.30;;;-0.50;94.70;;;-2.36;54.88;102449.84;4947719;28;20034;-74
2022/03/12 03:53:26;;;;;;;21.13;7.22;;;-0.50;94.70;;;-2.41;54.72;102443.69;4952553;28;20066;-74
2022/03/12 03:55:54;;;;;;;26.10;10.02;;;-0.60;94.80;;;-2.38;55.10;102442.06;4954622;28;20090;-75
2022/03/12 03:58:21;;;;;;;31.38;10.75;;;-0.50;94.60;;;-2.34;54.88;102440.47;4937908;28;20019;-74
2022/03/12 04:00:59;;;;;;;31.13;10.63;;;-0.50;94.50;;;-2.36;54.56;102448.16;4950292;28;20031;-75
2022/03/12 04:03:32;;;;;;;30.08;10.43;;;-0.50;94.70;;;-2.34;54.46;102446.50;4967018;28;20106;-74
2022/03/12 04:06:02;;;;;;;26.30;9.88;;;-0.50;94.70;;;-2.37;54.65;102438.66;4954519;28;20089;-74
2022/03/12 04:08:29;;;;;;;28.98;10.55;;;-0.50;94.60;;;-2.39;54.72;102437.75;4944223;28;20015;-74
2022/03/12 04:10:55;;;;;;;25.40;8.77;;;-0.50;94.70;;;-2.41;54.57;102436.81;4955489;28;20042;-74
2022/03/12 04:13:23;;;;;;;31.05;9.73;;;-0.60;94.70;;;-2.46;54.43;102453.84;4950944;28;20677;-73
2022/03/12 04:15:51;;;;;;;28.90;10.45;;;-0.60;94.80;;;-2.43;54.73;102450.50;4936184;28;20096;-74
2022/03/12 04:18:21;;;;;;;29.45;11.02;;;-0.60;94.90;;;-2.42;54.85;102449.66;4950732;28;20183;-73
2022/03/12 04:20:48;;;;;;;20.45;6.95;;;-0.60;94.90;;;-2.53;55.10;102449.28;4945328;28;20031;-74
2022/03/12 04:23:21;;;;;;;28.98;10.43;;;-0.70;94.80;;;-2.55;55.23;102448.34;4934014;28;20447;-74
2022/03/12 04:25:53;;;;;;;29.00;10.52;;;-0.70;95.00;;;-2.54;55.11;102444.97;4955218;28;24591;-73
2022/03/12 04:28:22;;;;;;;28.98;10.18;;;-0.70;94.90;;;-2.57;55.38;102447.41;4949751;28;20031;-73
2022/03/12 04:30:49;;;;;;;24.13;7.45;;;-0.70;94.90;;;-2.60;54.91;102445.59;4950470;28;20023;-73
2022/03/12 04:33:19;;;;;;;27.98;10.00;;;-0.70;95.00;;;-2.58;55.12;102448.25;4951870;28;20022;-73
2022/03/12 04:35:47;;;;;;;28.85;9.82;;;-0.70;95.00;;;-2.59;55.08;102446.47;4952463;28;20570;-74
2022/03/12 04:38:14;;;;;;;29.88;10.45;;;-0.80;95.00;;;-2.62;55.66;102442.09;4935093;28;20031;-74
2022/03/12 04:40:43;;;;;;;35.35;11.35;;;-0.70;95.10;;;-2.61;55.48;102441.28;4951930;28;20015;-74
2022/03/12 04:43:12;;;;;;;29.70;10.25;;;-0.80;95.20;;;-2.64;55.27;102448.03;4951161;28;20089;-73
2022/03/12 04:45:44;;;;;;;31.67;10.75;;;-0.80;95.20;;;-2.63;55.45;102448.09;4933759;28;20046;-74
2022/03/12 04:48:15;;;;;;;27.35;10.68;;;-0.80;95.20;;;-2.67;55.83;102440.19;4943205;28;20519;-74
2022/03/12 04:50:41;;;;;;;25.75;8.45;;;-0.80;95.20;;;-2.66;55.25;102439.34;4951616;28;20081;-73
2022/03/12 04:53:08;;;;;;;31.80;10.25;;;-0.80;95.10;;;-2.65;55.26;102448.88;4951893;28;20023;-73
2022/03/12 04:55:36;;;;;;;31.38;10.50;;;-0.80;95.00;;;-2.63;55.14;102452.38;4958167;28;20051;-73
2022/03/12 04:58:07;;;;;;;30.55;8.30;;;-0.80;94.90;;;-2.66;54.90;102444.50;4935930;28;20106;-74
2022/03/12 05:00:38;;;;;;;28.52;10.38;;;-0.80;94.90;;;-2.67;54.73;102451.38;4935999;28;20030;-73
2022/03/12 05:03:12;;;;;;;25.15;9.07;;;-0.80;95.10;;;-2.70;54.80;102457.31;4950888;28;20078;-74
2022/03/12 05:05:42;;;;;;;24.15;7.53;;;-0.90;95.00;;;-2.72;55.09;102446.06;4935322;28;20104;-73
2022/03/12 05:08:11;;;;;;;25.48;8.15;;;-0.80;95.00;;;-2.72;55.11;102442.59;4949781;28;20022;-73
2022/03/12 05:10:38;;;;;;;17.90;6.22;;;-0.80;95.10;;;-2.77;55.53;102452.75;4935138;28;20113;-73
2022/03/12 05:13:04;;;;;;;30.10;10.40;;;-0.90;95.30;;;-2.74;55.57;102444.25;4974471;28;20117;-74
2022/03/12 05:15:38;;;;;;;28.77;10.45;;;-0.90;95.40;;;-2.78;55.43;102447.56;4953887;28;20031;-73
2022/03/12 05:18:12;;;;;;;24.30;8.27;;;-0.90;95.20;;;-2.83;55.66;102442.22;4950608;28;20055;-73
2022/03/12 05:20:46;;;;;;;25.60;9.30;;;-0.90;95.40;;;-2.79;55.85;102445.78;4948229;28;20481;-73
2022/03/12 05:23:14;;;;;;;22.65;8.98;;;-0.90;95.30;;;-2.82;55.73;102448.25;4950982;28;20026;-73
2022/03/12 05:25:41;;;;;;;20.90;7.93;;;-0.90;95.30;;;-2.83;55.46;102438.75;4950546;28;20046;-73
2022/03/12 05:28:23;;;;;;;28.65;10.90;;;-1.00;95.20;;;-2.80;55.31;102444.03;4949827;28;20416;-73
2022/03/12 05:30:53;;;;;;;31.40;10.55;;;-1.00;95.30;;;-2.78;55.86;102455.28;4950355;28;20114;-73
2022/03/12 05:33:19;;;;;;;30.45;10.30;;;-1.00;95.50;;;-2.82;55.31;102454.28;4952684;28;25422;-73
2022/03/12 05:35:49;;;;;;;37.90;10.75;;;-1.00;95.70;;;-2.82;56.00;102451.72;4933324;28;20879;-73
2022/03/12 05:38:16;;;;;;;31.63;10.13;;;-1.00;95.50;;;-2.82;55.89;102449.13;4951140;28;20043;-74
2022/03/12 05:40:42;;;;;;;30.00;10.25;;;-1.00;95.70;;;-2.80;55.94;102447.50;4951060;28;20042;-72
2022/03/12 05:43:14;;;;;;;31.05;10.13;;;-1.00;95.60;;;-2.81;55.46;102455.16;4949580;28;20130;-73
2022/03/12 05:45:45;;;;;;;29.75;9.45;;;-1.10;95.60;;;-2.85;55.46;102449.03;4950279;28;20549;-73
2022/03/12 05:48:13;;;;;;;28.30;10.68;;;-1.00;95.60;;;-2.81;55.77;102452.56;4948992;28;21601;-72
2022/03/12 05:50:44;;;;;;;30.45;9.90;;;-1.00;95.70;;;-2.75;56.14;102452.81;4949492;28;20383;-73
2022/03/12 05:53:10;;;;;;;24.40;8.65;;;-1.00;95.70;;;-2.78;55.91;102457.88;4948667;28;20141;-73
2022/03/12 05:55:39;;;;;;;29.08;10.35;;;-1.00;95.70;;;-2.73;56.08;102451.16;4934831;28;20604;-73
2022/03/12 05:58:15;;;;;;;32.30;10.65;;;-1.00;95.70;;;-2.72;55.60;102443.50;4950409;28;24917;-73
2022/03/12 06:00:43;;;;;;;29.75;10.50;;;-0.90;95.50;;;-2.62;55.54;102444.66;4951082;28;20514;-73
2022/03/12 06:03:10;;;;;;;24.25;7.30;;;-0.80;95.50;;;-2.07;54.70;102451.72;4956694;28;20034;-73
2022/03/12 06:05:40;;;;;;;31.27;10.43;;;-0.70;95.30;;;-1.67;53.29;102450.41;4971785;28;20122;-73
2022/03/12 06:08:08;;;;;;;28.25;9.52;;;-0.50;95.10;;;-1.21;53.09;102445.75;4953902;28;20041;-73
2022/03/12 06:10:35;;;;;;;32.10;10.27;;;-0.20;94.70;;;0.65;49.61;102450.53;4954094;28;20038;-74
2022/03/12 06:13:02;;;;;;;34.85;11.23;;;0.10;94.00;;;-0.32;49.17;102456.00;4948602;28;20035;-74
2022/03/12 06:15:28;;;;;;;19.88;7.72;;;0.30;93.60;;;0.08;48.53;102466.47;4934743;28;20411;-73
2022/03/12 06:17:55;;;;;;;51.60;14.02;;;0.50;93.20;;;0.41;47.94;102461.19;4951284;28;20476;-73
2022/03/12 06:20:23;;;;;;;39.83;13.30;;;0.90;93.10;;;4.04;43.98;102459.06;4952476;28;20034;-73
2022/03/12 06:22:54;;;;;;;64.68;20.08;;;1.60;92.00;;;4.20;40.87;102487.03;4949053;28;20062;-73
2022/03/12 06:25:22;;;;;;;40.13;14.20;;;2.20;91.10;;;5.25;38.73;102487.66;4957604;28;20589;-73
2022/03/12 06:27:55;;;;;;;47.40;15.80;;;2.80;90.10;;;6.46;36.32;102494.81;4931514;28;20118;-73
2022/03/12 06:30:24;;;;;;;36.60;15.07;;;3.20;88.20;;;4.63;36.91;102507.34;4949508;28;20034;-74
2022/03/12 06:32:51;;;;;;;30.17;11.45;;;2.90;87.10;;;2.31;40.61;102509.91;4946746;28;20403;-73
2022/03/12 06:35:18;;;;;;;28.95;11.80;;;2.80;88.90;;;2.64;41.65;102501.78;4947720;28;20447;-73
2022/03/12 06:37:44;;;;;;;27.58;9.85;;;2.80;89.20;;;5.16;40.39;102498.03;4952083;28;20557;-73
2022/03/12 06:40:14;;;;;;;25.90;10.07;;;3.50;89.20;;;9.41;34.10;102519.81;4948509;28;20062;-73
2022/03/12 06:42:43;;;;;;;24.33;10.15;;;4.60;86.80;;;11.48;30.86;102564.63;4949332;28;20045;-73
2022/03/12 06:45:13;;;;;;;22.75;8.50;;;5.70;82.80;;;11.26;28.87;102567.69;4950563;28;20425;-73
2022/03/12 06:47:39;;;;;;;30.63;11.15;;;6.60;80.60;;;13.10;27.75;102553.66;4965026;28;20034;-73
2022/03/12 06:50:12;;;;;;;26.02;10.60;;;7.50;78.60;;;13.76;26.55;102578.22;4951117;28;20050;-74
2022/03/12 06:52:43;;;;;;;31.35;11.25;;;8.20;76.20;;;13.94;26.16;102629.75;4964292;28;20455;-74
2022/03/12 06:55:10;;;;;;;26.58;11.15;;;8.70;75.10;;;14.56;25.10;102599.53;4933298;28;20122;-73
2022/03/12 06:57:37;;;;;;;31.13;11.23;;;8.90;72.30;;;13.83;25.49;102615.97;4951603;28;20038;-73
2022/03/12 07:00:11;;;;;;;27.13;11.43;;;9.20;73.20;;;14.88;25.16;102632.94;4948763;28;20026;-74
2022/03/12 07:02:37;;;;;;;29.00;11.93;;;9.40;71.70;;;14.77;24.76;102632.41;4949526;28;20027;-73
2022/03/12 07:05:05;;;;;;;24.15;10.73;;;9.70;70.40;;;14.13;24.81;102640.66;4950262;28;20058;-74
2022/03/12 07:07:32;;;;;;;29.17;11.25;;;9.80;69.60;;;15.01;24.39;102665.19;4954322;28;20038;-74
2022/03/12 07:09:58;;;;;;;26.23;11.52;;;10.10;68.20;;;14.28;24.52;102652.56;4954623;28;20027;-74
2022/03/12 07:12:25;;;;;;;33.45;11.65;;;10.30;68.10;;;14.23;24.59;102649.16;4937039;28;20027;-74
2022/03/12 07:14:51;;;;;;;31.60;12.95;;;10.40;67.70;;;14.69;24.43;102645.94;4951062;28;20039;-74
2022/03/12 07:17:17;;;;;;;28.45;11.82;;;10.50;67.20;;;14.69;24.14;102653.88;4954048;28;20029;-74
2022/03/12 07:19:43;;;;;;;24.77;10.82;;;10.70;66.30;;;14.19;24.31;102666.97;4936788;28;20054;-74
2022/03/12 07:22:10;;;;;;;28.98;11.57;;;10.80;67.10;;;14.92;23.75;102631.91;4953886;28;20376;-73
2022/03/12 07:24:36;;;;;;;28.73;11.73;;;10.80;65.60;;;14.18;24.40;102664.34;4953422;28;20049;-74
2022/03/12 07:27:03;;;;;;;25.35;11.45;;;11.10;65.90;;;14.34;24.13;102660.28;4955137;28;20031;-74
2022/03/12 07:29:32;;;;;;;27.90;11.95;;;11.10;64.90;;;14.57;23.96;102662.22;4936506;28;20065;-74
2022/03/12 07:31:58;;;;;;;30.73;11.90;;;11.40;64.60;;;14.52;24.07;102643.81;4953968;28;20023;-74
2022/03/12 07:34:24;;;;;;;25.77;11.32;;;11.30;64.40;;;14.07;24.42;102654.94;4953489;28;20106;-74
2022/03/12 07:36:50;;;;;;;31.05;12.05;;;11.40;63.30;;;14.32;24.00;102633.84;4952499;28;20208;-74
2022/03/12 07:39:16;;;;;;;21.80;7.38;;;11.10;62.10;;;11.65;25.20;102640.78;4935923;28;20027;-74
2022/03/12 07:41:42;;;;;;;30.20;12.40;;;11.40;63.90;;;13.33;24.92;102635.91;4953589;28;20093;-74
2022/03/12 07:44:08;;;;;;;25.50;11.25;;;11.90;64.00;;;14.56;23.84;102645.47;4944962;28;20046;-74
2022/03/12 07:46:35;;;;;;;25.70;12.18;;;12.00;61.50;;;14.20;24.05;102641.31;4966765;28;20035;-74
2022/03/12 07:49:03;;;;;;;28.60;11.45;;;12.20;61.20;;;13.70;24.49;102648.09;4954789;28;20498;-74
2022/03/12 07:51:32;;;;;;;27.38;11.43;;;11.90;60.20;;;12.62;24.67;102654.50;4928951;28;20086;-75
2022/03/12 07:54:00;;;;;;;25.90;11.38;;;11.20;60.20;;;11.52;25.69;102640.16;4951054;28;20047;-74
2022/03/12 07:56:30;;;;;;;23.05;10.63;;;11.60;61.80;;;12.45;25.81;102644.34;4958957;28;20076;-75
2022/03/12 07:58:56;;;;;;;18.13;7.82;;;11.70;62.10;;;11.70;25.73;102645.09;4953262;28;20623;-75
2022/03/12 08:01:23;;;;;;;27.60;12.38;;;12.00;62.50;;;12.70;25.33;102652.53;4951501;28;20039;-75
2022/03/12 08:03:49;;;;;;;27.98;11.65;;;12.20;60.40;;;12.57;25.51;102659.00;4952849;28;20166;-74
2022/03/12 08:06:19;;;;;;;31.30;11.20;;;12.30;61.70;;;12.37;26.13;102646.28;4919300;28;20071;-75
2022/03/12 08:08:45;;;;;;;27.75;12.10;;;12.40;62.80;;;12.06;26.05;102653.13;4953476;28;20499;-75
2022/03/12 08:11:28;;;;;;;31.80;11.88;;;12.10;60.00;;;11.93;26.69;102643.75;4952577;28;20031;-75
2022/03/12 08:14:06;;;;;;;28.95;12.27;;;12.10;59.70;;;11.88;26.41;102643.84;4940157;28;20039;-75
2022/03/12 08:16:34;;;;;;;22.85;11.75;;;12.30;59.80;;;11.34;26.39;102635.25;4951712;28;20030;-75
2022/03/12 08:19:07;;;;;;;25.50;12.02;;;12.40;60.10;;;11.65;26.49;102632.88;4945524;28;20039;-75
2022/03/12 08:21:35;;;;;;;15.48;7.47;;;12.50;60.40;;;10.84;26.99;102641.44;4951551;28;20035;-74
2022/03/12 08:24:03;;;;;;;26.92;11.82;;;12.30;59.90;;;11.05;27.51;102639.31;4951695;28;20086;-75
2022/03/12 08:26:34;;;;;;;24.60;11.43;;;12.30;59.80;;;11.03;27.49;102641.94;4937183;28;20045;-75
2022/03/12 08:29:03;;;;;;;30.45;12.00;;;12.60;60.40;;;11.72;27.10;102631.84;4959964;28;20519;-73
2022/03/12 08:31:29;;;;;;;29.27;12.38;;;12.80;59.20;;;11.13;27.53;102639.19;4960741;28;20109;-73
2022/03/12 08:33:55;;;;;;;23.92;11.07;;;12.80;59.00;;;10.90;27.86;102637.81;4941237;28;20109;-74
2022/03/12 08:36:21;;;;;;;26.25;11.65;;;12.60;58.50;;;10.33;27.75;102633.47;4952722;28;20042;-74
2022/03/12 08:38:47;;;;;;;22.98;11.18;;;12.40;59.70;;;10.31;28.16;102632.63;4950481;28;20046;-76
2022/03/12 08:41:14;;;;;;;28.85;11.45;;;12.50;60.10;;;10.70;28.55;102632.88;4945368;28;20027;-75
2022/03/12 08:43:40;;;;;;;22.92;11.35;;;12.60;60.00;;;10.77;27.95;102631.00;4950493;28;20031;-75
2022/03/12 08:46:07;;;;;;;24.70;10.68;;;12.60;58.90;;;10.20;28.38;102635.38;4935957;28;20026;-75
2022/03/12 08:48:35;;;;;;;23.60;10.65;;;12.30;59.00;;;10.11;28.31;102635.53;4953041;28;20027;-76
2022/03/12 08:51:02;;;;;;;27.23;11.27;;;12.10;59.30;;;9.60;28.76;102622.16;4946682;28;20492;-76
2022/03/12 08:53:28;;;;;;;27.73;11.05;;;11.90;59.90;;;9.92;28.87;102624.38;4910069;28;20031;-77
2022/03/12 08:55:54;;;;;;;26.20;10.60;;;11.80;60.00;;;9.43;29.01;102632.88;4942272;28;20024;-76
2022/03/12 08:58:23;;;;;;;28.80;11.57;;;11.60;60.10;;;9.51;28.94;102623.13;4961600;28;23110;-77
2022/03/12 09:00:52;;;;;;;23.60;10.45;;;11.40;60.00;;;9.15;29.41;102633.16;4956972;28;20038;-76
2022/03/12 09:03:20;;;;;;;27.23;10.80;;;11.10;60.10;;;9.23;29.33;102626.06;4949784;28;20097;-75
2022/03/12 09:05:48;;;;;;;29.17;11.20;;;11.10;62.20;;;9.33;29.50;102628.59;4926598;28;20046;-76
2022/03/12 09:08:15;;;;;;;25.40;11.68;;;11.00;61.20;;;9.20;29.32;102633.09;4955601;28;20058;-76
2022/03/12 09:10:43;;;;;;;23.63;10.80;;;10.80;61.20;;;8.97;29.12;102638.59;4943365;28;20031;-76
2022/03/12 09:13:13;;;;;;;37.53;11.68;;;10.50;60.50;;;8.61;29.75;102645.91;4937768;28;20050;-76
2022/03/12 09:15:41;;;;;;;25.83;11.07;;;10.40;62.60;;;8.90;30.06;102645.69;4917330;28;20050;-76
2022/03/12 09:18:09;;;;;;;21.70;10.40;;;10.20;62.80;;;8.65;30.52;102645.00;4941410;28;20065;-76
2022/03/12 09:20:38;;;;;;;24.58;10.93;;;10.10;62.30;;;8.46;30.24;102640.78;4924934;28;20030;-75
2022/03/12 09:23:04;;;;;;;23.60;10.25;;;10.00;62.70;;;8.41;29.84;102643.44;4949211;28;20039;-76
2022/03/12 09:25:30;;;;;;;25.83;9.18;;;9.80;63.10;;;8.20;30.40;102647.91;4933990;28;20079;-76
2022/03/12 09:27:57;;;;;;;26.27;9.77;;;9.30;63.60;;;7.56;30.87;102640.34;4923418;28;20059;-76
2022/03/12 09:30:23;;;;;;;25.63;10.65;;;9.20;65.10;;;7.92;31.45;102639.31;4931411;28;20042;-75
2022/03/12 09:32:49;;;;;;;27.45;9.95;;;8.90;64.80;;;7.45;31.52;102640.41;4952278;28;20058;-76
2022/03/12 09:35:15;;;;;;;16.67;7.18;;;8.90;66.00;;;7.43;31.62;102633.38;4949010;28;20841;-76
2022/03/12 09:37:42;;;;;;;26.10;10.43;;;8.60;66.00;;;7.40;32.25;102639.50;4935118;28;20023;-75
2022/03/12 09:40:19;;;;;;;25.02;10.68;;;8.50;66.70;;;7.24;31.99;102637.81;4933588;28;20050;-75
2022/03/12 09:42:46;;;;;;;22.00;10.85;;;8.40;67.90;;;6.93;33.04;102635.22;4925933;28;20574;-75
2022/03/12 09:45:13;;;;;;;21.85;9.52;;;8.10;68.40;;;6.46;33.61;102630.88;4930463;28;20045;-76
2022/03/12 09:47:41;;;;;;;25.65;10.77;;;7.80;68.70;;;6.26;34.01;102618.63;4911414;28;20443;-76
2022/03/12 09:50:13;;;;;;;23.17;10.55;;;7.80;70.00;;;6.29;34.75;102628.25;4943120;28;20101;-75
2022/03/12 09:52:40;;;;;;;22.85;9.43;;;7.60;68.70;;;5.90;34.30;102622.88;4934761;28;20117;-75
2022/03/12 09:55:07;;;;;;;22.02;8.93;;;7.60;69.60;;;5.99;34.48;102623.81;4924054;28;20027;-75
2022/03/12 09:57:37;;;;;;;22.38;10.40;;;7.40;69.90;;;5.78;34.91;102607.16;4974487;28;20029;-75
2022/03/12 10:00:06;;;;;;;20.42;8.05;;;7.20;69.30;;;5.57;34.57;102605.31;4949095;28;20038;-75
2022/03/12 10:02:36;;;;;;;24.45;9.43;;;7.20;69.20;;;5.59;34.38;102607.94;4949345;28;20092;-75
2022/03/12 10:05:06;;;;;;;29.20;10.13;;;7.30;70.20;;;5.83;35.00;102594.09;4932875;28;20042;-75
2022/03/12 10:07:32;;;;;;;18.58;7.60;;;7.30;69.80;;;5.76;34.56;102595.81;4939635;28;20026;-75
2022/03/12 10:10:01;;;;;;;29.27;10.18;;;7.40;69.60;;;6.17;34.44;102592.47;4941923;28;20434;-75
2022/03/12 10:12:30;;;;;;;23.02;9.38;;;7.50;69.50;;;6.11;34.17;102597.66;4950118;28;20027;-76